createdAt,value
2018-05-02T00:01:34.786Z,99.90
2018-05-02T00:04:02.282Z,99.90
2018-05-02T00:06:30.130Z,99.90
2018-05-02T00:08:57.631Z,99.90
2018-05-02T00:11:25.920Z,99.90
2018-05-02T00:13:54.181Z,99.90
2018-05-02T00:16:22.482Z,99.90
2018-05-02T00:18:49.986Z,99.90
2018-05-02T00:21:17.480Z,99.90
2018-05-02T00:23:45.773Z,99.90
2018-05-02T00:26:13.269Z,99.90
2018-05-02T00:28:40.860Z,99.90
2018-05-02T00:31:08.333Z,99.90
2018-05-02T00:33:35.867Z,99.90
2018-05-02T00:36:04.126Z,99.90
2018-05-02T00:38:31.646Z,99.90
2018-05-02T00:40:59.142Z,99.90
2018-05-02T00:43:26.703Z,99.90
2018-05-02T00:45:54.975Z,99.90
2018-05-02T00:48:23.506Z,99.90
2018-05-02T00:50:51.005Z,99.90
2018-05-02T00:53:18.513Z,99.90
2018-05-02T00:55:46.018Z,99.90
2018-05-02T00:58:14.313Z,99.90
2018-05-02T01:00:41.810Z,99.90
2018-05-02T01:03:09.326Z,99.90
2018-05-02T01:05:36.832Z,99.90
2018-05-02T01:08:04.358Z,99.90
2018-05-02T01:10:32.130Z,99.90
2018-05-02T01:12:59.889Z,99.90
2018-05-02T01:15:28.175Z,99.90
2018-05-02T01:17:55.694Z,99.90
2018-05-02T01:20:23.185Z,99.90
2018-05-02T01:22:50.745Z,99.90
2018-05-02T01:25:18.241Z,99.90
2018-05-02T01:27:46.547Z,99.90
2018-05-02T01:30:14.057Z,99.90
2018-05-02T01:32:41.598Z,99.90
2018-05-02T01:35:09.097Z,99.90
2018-05-02T01:37:36.993Z,99.90
2018-05-02T01:40:04.498Z,99.90
2018-05-02T01:42:32.782Z,99.90
2018-05-02T01:45:00.290Z,99.90
2018-05-02T01:47:28.168Z,99.90
2018-05-02T01:49:55.901Z,99.90
2018-05-02T01:52:23.426Z,99.90
2018-05-02T01:54:50.949Z,99.90
2018-05-02T01:57:18.474Z,99.90
2018-05-02T01:59:45.990Z,99.90
2018-05-02T02:02:14.278Z,99.90
2018-05-02T02:04:42.066Z,99.90
2018-05-02T02:07:09.586Z,99.90
2018-05-02T02:09:37.079Z,99.90
2018-05-02T02:12:04.606Z,99.90
2018-05-02T02:14:32.170Z,99.90
2018-05-02T02:16:59.694Z,99.90
2018-05-02T02:19:27.978Z,99.90
2018-05-02T02:21:56.268Z,99.90
2018-05-02T02:24:23.777Z,99.90
2018-05-02T02:26:51.299Z,99.90
2018-05-02T02:29:18.820Z,99.90
2018-05-02T02:31:47.081Z,99.90
2018-05-02T02:34:15.371Z,99.90
2018-05-02T02:36:43.637Z,99.90
2018-05-02T02:39:11.922Z,99.90
2018-05-02T02:41:39.435Z,99.90
2018-05-02T02:44:07.191Z,99.90
2018-05-02T02:46:34.772Z,99.90
2018-05-02T02:49:02.249Z,99.90
2018-05-02T02:51:29.746Z,99.90
2018-05-02T02:53:57.407Z,99.90
2018-05-02T02:56:24.903Z,99.90
2018-05-02T02:58:53.191Z,99.90
2018-05-02T03:01:20.727Z,99.90
2018-05-02T03:03:49.019Z,99.90
2018-05-02T03:06:16.522Z,99.90
2018-05-02T03:08:44.046Z,99.90
2018-05-02T03:11:11.574Z,99.90
2018-05-02T03:13:39.861Z,99.90
2018-05-02T03:16:07.594Z,99.90
2018-05-02T03:18:35.117Z,99.90
2018-05-02T03:21:02.611Z,99.90
2018-05-02T03:23:30.906Z,99.90
2018-05-02T03:25:59.197Z,99.90
2018-05-02T03:28:26.718Z,99.90
2018-05-02T03:30:54.980Z,99.90
2018-05-02T03:33:22.477Z,99.90
2018-05-02T03:35:50.003Z,99.90
2018-05-02T03:38:18.285Z,99.90
2018-05-02T03:40:46.814Z,99.90
2018-05-02T03:43:14.311Z,99.90
2018-05-02T03:45:42.622Z,99.90
2018-05-02T03:48:10.121Z,99.90
2018-05-02T03:50:37.638Z,99.90
2018-05-02T03:53:05.432Z,99.90
2018-05-02T03:55:32.944Z,99.90
2018-05-02T03:58:00.445Z,99.90
2018-05-02T04:00:39.917Z,99.90
2018-05-02T04:06:36.431Z,99.90
2018-05-02T04:09:03.929Z,99.90
2018-05-02T04:11:31.446Z,99.90
2018-05-02T04:13:58.941Z,99.90
2018-05-02T04:16:27.560Z,99.90
2018-05-02T04:18:55.053Z,99.90
2018-05-02T04:21:22.570Z,99.90
2018-05-02T04:23:50.072Z,99.90
2018-05-02T04:26:18.357Z,99.90
2018-05-02T04:28:46.610Z,99.90
2018-05-02T04:31:14.154Z,99.90
2018-05-02T04:33:41.654Z,99.90
2018-05-02T04:36:09.210Z,99.90
2018-05-02T04:38:36.706Z,99.90
2018-05-02T04:41:05.301Z,99.90
2018-05-02T04:43:32.788Z,99.90
2018-05-02T04:46:01.057Z,99.90
2018-05-02T04:48:29.340Z,99.90
2018-05-02T04:50:57.609Z,99.90
2018-05-02T04:53:25.897Z,99.90
2018-05-02T04:55:53.398Z,99.90
2018-05-02T04:58:20.942Z,99.90
2018-05-02T05:00:48.446Z,99.90
2018-05-02T05:03:16.729Z,99.90
2018-05-02T05:05:44.993Z,99.90
2018-05-02T05:08:12.542Z,99.90
2018-05-02T05:10:40.805Z,99.90
2018-05-02T05:13:08.321Z,99.90
2018-05-02T05:15:35.840Z,99.90
2018-05-02T05:18:04.121Z,99.90
2018-05-02T05:20:31.621Z,99.90
2018-05-02T05:22:59.152Z,99.90
2018-05-02T05:25:26.923Z,99.90
2018-05-02T05:27:54.454Z,99.90
2018-05-02T05:30:21.955Z,99.90
2018-05-02T05:32:49.474Z,99.90
2018-05-02T05:35:16.992Z,99.90
2018-05-02T05:37:44.807Z,99.90
2018-05-02T05:40:12.306Z,99.90
2018-05-02T05:42:39.802Z,99.90
2018-05-02T05:45:07.326Z,99.90
2018-05-02T05:47:35.585Z,99.90
2018-05-02T05:50:03.097Z,99.90
2018-05-02T05:52:30.621Z,99.90
2018-05-02T05:54:58.917Z,99.90
2018-05-02T05:57:26.422Z,99.90
2018-05-02T05:59:53.949Z,99.90
2018-05-02T06:02:21.445Z,99.90
2018-05-02T06:04:48.962Z,99.90
2018-05-02T06:07:16.457Z,99.90
2018-05-02T06:09:43.978Z,99.90
2018-05-02T06:12:11.473Z,99.90
2018-05-02T06:14:39.758Z,99.90
2018-05-02T06:17:08.027Z,99.90
2018-05-02T06:19:36.331Z,99.90
2018-05-02T06:22:03.833Z,99.90
2018-05-02T06:24:31.357Z,99.90
2018-05-02T06:26:58.853Z,99.90
2018-05-02T06:29:27.150Z,99.90
2018-05-02T06:31:54.676Z,99.90
2018-05-02T06:34:22.510Z,99.90
2018-05-02T06:36:50.266Z,99.90
2018-05-02T06:39:17.790Z,99.90
2018-05-02T06:41:45.286Z,99.90
2018-05-02T06:44:12.810Z,99.90
2018-05-02T06:46:40.302Z,99.90
2018-05-02T06:49:07.834Z,99.90
2018-05-02T06:51:35.328Z,99.90
2018-05-02T06:54:02.846Z,99.90
2018-05-02T06:56:30.358Z,99.90
2018-05-02T06:58:58.651Z,99.90
2018-05-02T07:01:26.143Z,99.90
2018-05-02T07:03:53.998Z,99.90
2018-05-02T07:06:21.494Z,99.90
2018-05-02T07:08:49.804Z,99.90
2018-05-02T07:11:17.318Z,99.90
2018-05-02T07:13:44.842Z,99.90
2018-05-02T07:16:12.333Z,99.90
2018-05-02T07:18:39.862Z,99.90
2018-05-02T07:21:07.370Z,99.90
2018-05-02T07:23:35.659Z,99.90
2018-05-02T07:26:03.159Z,99.90
2018-05-02T07:28:30.685Z,99.90
2018-05-02T07:30:58.181Z,99.90
2018-05-02T07:33:25.698Z,99.90
2018-05-02T07:35:53.197Z,99.90
2018-05-02T07:38:20.724Z,99.90
2018-05-02T07:40:48.225Z,99.90
2018-05-02T07:43:16.521Z,99.70
2018-05-02T07:45:44.021Z,99.70
2018-05-02T07:48:11.547Z,99.00
2018-05-02T07:50:39.078Z,99.50
2018-05-02T07:53:06.582Z,98.50
2018-05-02T07:55:34.106Z,98.60
2018-05-02T07:58:01.644Z,98.20
2018-05-02T08:00:29.147Z,98.00
2018-05-02T08:02:56.651Z,97.80
2018-05-02T08:05:25.274Z,97.60
2018-05-02T08:07:52.774Z,97.60
2018-05-02T08:10:20.542Z,97.10
2018-05-02T08:12:48.806Z,96.30
2018-05-02T08:15:16.412Z,96.30
2018-05-02T08:17:43.937Z,96.10
2018-05-02T08:20:12.231Z,95.40
2018-05-02T08:22:39.746Z,95.40
2018-05-02T08:25:07.269Z,96.50
2018-05-02T08:27:34.765Z,97.00
2018-05-02T08:30:02.295Z,95.60
2018-05-02T08:32:29.794Z,95.20
2018-05-02T08:34:57.328Z,95.40
2018-05-02T08:37:24.834Z,94.10
2018-05-02T08:39:52.354Z,93.80
2018-05-02T08:42:20.622Z,93.50
2018-05-02T08:44:48.913Z,93.80
2018-05-02T08:47:16.410Z,93.70
2018-05-02T08:49:43.925Z,92.90
2018-05-02T08:52:11.422Z,93.20
2018-05-02T08:54:38.946Z,92.80
2018-05-02T08:57:06.453Z,92.90
2018-05-02T08:59:33.986Z,93.40
2018-05-02T09:02:01.489Z,93.30
2018-05-02T09:04:29.797Z,92.70
2018-05-02T09:06:57.294Z,92.70
2018-05-02T09:09:25.126Z,92.80
2018-05-02T09:11:52.885Z,92.80
2018-05-02T09:14:20.407Z,90.90
2018-05-02T09:16:48.674Z,92.10
2018-05-02T09:19:16.972Z,91.40
2018-05-02T09:21:44.479Z,91.30
2018-05-02T09:24:12.011Z,90.60
2018-05-02T09:26:39.506Z,90.70
2018-05-02T09:29:07.796Z,90.50
2018-05-02T09:31:36.062Z,90.60
2018-05-02T09:34:04.353Z,90.00
2018-05-02T09:36:31.866Z,90.00
2018-05-02T09:38:59.398Z,84.00
2018-05-02T09:41:26.893Z,89.40
2018-05-02T09:43:55.187Z,90.30
2018-05-02T09:46:22.694Z,90.30
2018-05-02T09:48:50.249Z,90.30
2018-05-02T09:51:17.749Z,89.20
2018-05-02T09:53:46.033Z,88.40
2018-05-02T09:56:13.539Z,88.40
2018-05-02T09:58:41.049Z,88.70
2018-05-02T10:01:08.831Z,87.70
2018-05-02T10:03:36.337Z,88.20
2018-05-02T10:06:04.628Z,84.70
2018-05-02T10:08:32.130Z,84.70
2018-05-02T10:10:59.656Z,85.10
2018-05-02T10:13:27.161Z,85.60
2018-05-02T10:15:54.686Z,86.80
2018-05-02T10:18:22.466Z,84.90
2018-05-02T10:20:49.982Z,83.70
2018-05-02T10:23:17.486Z,83.10
2018-05-02T10:25:45.021Z,84.30
2018-05-02T10:28:12.526Z,82.90
2018-05-02T10:30:40.813Z,84.20
2018-05-02T10:33:08.318Z,84.20
2018-05-02T10:35:35.843Z,84.10
2018-05-02T10:38:03.614Z,82.30
2018-05-02T10:40:31.137Z,83.30
2018-05-02T10:42:59.437Z,82.40
2018-05-02T10:45:26.966Z,82.30
2018-05-02T10:47:54.465Z,78.80
2018-05-02T10:50:21.991Z,77.80
2018-05-02T10:52:49.521Z,79.10
2018-05-02T10:55:17.813Z,75.20
2018-05-02T10:57:45.322Z,75.20
2018-05-02T11:00:12.847Z,74.70
2018-05-02T11:02:40.357Z,75.30
2018-05-02T11:05:07.892Z,74.60
2018-05-02T11:07:35.398Z,74.00
2018-05-02T11:10:02.932Z,77.00
2018-05-02T11:12:31.228Z,69.50
2018-05-02T11:14:59.502Z,69.80
2018-05-02T11:17:27.006Z,69.80
2018-05-02T11:19:54.532Z,70.60
2018-05-02T11:22:22.035Z,67.60
2018-05-02T11:24:49.558Z,68.60
2018-05-02T11:27:17.070Z,68.60
2018-05-02T11:29:44.594Z,66.50
2018-05-02T11:32:12.421Z,65.10
2018-05-02T11:34:40.004Z,68.90
2018-05-02T11:37:07.501Z,66.00
2018-05-02T11:39:35.790Z,70.10
2018-05-02T11:42:03.296Z,70.00
2018-05-02T11:44:30.825Z,67.10
2018-05-02T11:46:58.331Z,65.30
2018-05-02T11:49:26.626Z,66.50
2018-05-02T11:51:54.125Z,66.50
2018-05-02T11:54:21.650Z,66.90
2018-05-02T11:56:49.174Z,65.60
2018-05-02T11:59:17.473Z,63.60
2018-05-02T12:01:44.971Z,63.60
2018-05-02T12:04:12.597Z,62.70
2018-05-02T12:06:40.128Z,63.50
2018-05-02T12:09:07.629Z,65.10
2018-05-02T12:11:35.191Z,64.70
2018-05-02T12:14:02.693Z,65.10
2018-05-02T12:16:31.096Z,64.20
2018-05-02T12:18:58.871Z,64.20
2018-05-02T12:21:26.402Z,68.80
2018-05-02T12:23:53.914Z,64.00
2018-05-02T12:26:21.742Z,64.30
2018-05-02T12:28:49.238Z,66.20
2018-05-02T12:31:16.760Z,66.20
2018-05-02T12:33:44.298Z,64.70
2018-05-02T12:36:11.826Z,64.70
2018-05-02T12:38:40.345Z,62.80
2018-05-02T12:41:07.890Z,62.70
2018-05-02T12:43:35.409Z,62.80
2018-05-02T12:46:03.935Z,61.50
2018-05-02T12:48:31.434Z,61.50
2018-05-02T12:50:58.963Z,63.00
2018-05-02T12:53:26.490Z,63.00
2018-05-02T12:55:54.015Z,63.20
2018-05-02T12:58:22.299Z,62.30
2018-05-02T13:00:49.834Z,62.20
2018-05-02T13:03:18.102Z,61.20
2018-05-02T13:05:45.677Z,61.10
2018-05-02T13:08:13.970Z,63.60
2018-05-02T13:10:41.482Z,63.50
2018-05-02T13:13:09.001Z,63.60
2018-05-02T13:15:36.652Z,62.80
2018-05-02T13:18:04.886Z,63.10
2018-05-02T13:20:33.181Z,64.40
2018-05-02T13:23:00.677Z,64.30
2018-05-02T13:25:28.205Z,62.70
2018-05-02T13:27:55.717Z,62.40
2018-05-02T13:30:24.358Z,65.10
2018-05-02T13:32:51.886Z,65.00
2018-05-02T13:35:19.679Z,63.90
2018-05-02T13:37:47.179Z,64.00
2018-05-02T13:40:15.471Z,62.40
2018-05-02T13:42:43.756Z,60.00
2018-05-02T13:45:11.286Z,60.60
2018-05-02T13:47:39.815Z,60.80
2018-05-02T13:50:07.346Z,60.80
2018-05-02T13:52:34.845Z,61.90
2018-05-02T13:55:02.374Z,61.70
2018-05-02T13:57:29.876Z,61.70
2018-05-02T13:59:57.402Z,61.20
2018-05-02T14:02:24.909Z,62.20
2018-05-02T14:04:53.197Z,62.30
2018-05-02T14:07:20.699Z,62.30
2018-05-02T14:09:48.235Z,62.00
2018-05-02T14:12:15.737Z,60.90
2018-05-02T14:14:44.001Z,59.10
2018-05-02T14:17:11.521Z,59.20
2018-05-02T14:19:39.026Z,64.40
2018-05-02T14:22:07.346Z,60.30
2018-05-02T14:24:34.841Z,60.30
2018-05-02T14:27:02.386Z,60.10
2018-05-02T14:29:30.226Z,60.30
2018-05-02T14:31:57.754Z,59.70
2018-05-02T14:34:25.264Z,61.20
2018-05-02T14:36:52.794Z,61.30
2018-05-02T14:39:20.294Z,62.30
2018-05-02T14:41:48.582Z,63.20
2018-05-02T14:44:16.086Z,62.40
2018-05-02T14:46:43.606Z,62.40
2018-05-02T14:49:11.113Z,62.20
2018-05-02T14:51:38.645Z,63.50
2018-05-02T14:54:06.154Z,63.00
2018-05-02T14:56:34.465Z,61.50
2018-05-02T14:59:01.974Z,60.80
2018-05-02T15:01:29.568Z,61.80
2018-05-02T15:03:57.046Z,61.70
2018-05-02T15:06:24.580Z,63.00
2018-05-02T15:08:52.085Z,61.30
2018-05-02T15:11:19.609Z,61.30
2018-05-02T15:13:47.115Z,61.20
2018-05-02T15:16:15.436Z,61.10
2018-05-02T15:18:42.933Z,61.10
2018-05-02T15:21:10.453Z,60.10
2018-05-02T15:23:37.963Z,59.10
2018-05-02T15:26:06.253Z,59.10
2018-05-02T15:28:33.782Z,59.00
2018-05-02T15:31:01.317Z,59.40
2018-05-02T15:33:28.823Z,58.90
2018-05-02T15:35:56.397Z,59.20
2018-05-02T15:38:23.954Z,57.60
2018-05-02T15:40:51.549Z,58.50
2018-05-02T15:43:19.039Z,60.70
2018-05-02T15:45:47.363Z,61.50
2018-05-02T15:48:14.865Z,62.10
2018-05-02T15:50:43.159Z,60.30
2018-05-02T15:53:10.669Z,60.30
2018-05-02T15:55:38.190Z,59.90
2018-05-02T15:58:05.739Z,59.60
2018-05-02T16:00:34.013Z,60.60
2018-05-02T16:03:01.521Z,60.60
2018-05-02T16:05:29.826Z,61.70
2018-05-02T16:07:57.331Z,62.40
2018-05-02T16:10:24.850Z,64.10
2018-05-02T16:12:52.374Z,64.90
2018-05-02T16:15:20.693Z,65.50
2018-05-02T16:17:48.206Z,65.50
2018-05-02T16:20:16.736Z,66.40
2018-05-02T16:22:44.266Z,66.40
2018-05-02T16:25:11.815Z,66.40
2018-05-02T16:27:39.411Z,66.50
2018-05-02T16:30:07.621Z,67.40
2018-05-02T16:32:35.918Z,68.00
2018-05-02T16:35:11.335Z,67.90
2018-05-02T16:37:39.970Z,69.00
2018-05-02T16:40:07.482Z,69.00
2018-05-02T16:42:35.773Z,69.90
2018-05-02T16:45:03.369Z,69.80
2018-05-02T16:47:30.894Z,69.10
2018-05-02T16:49:58.672Z,68.80
2018-05-02T16:52:26.194Z,68.50
2018-05-02T16:54:54.462Z,68.40
2018-05-02T16:57:22.763Z,69.00
2018-05-02T16:59:50.282Z,69.00
2018-05-02T17:02:18.574Z,69.00
2018-05-02T17:04:46.088Z,69.00
2018-05-02T17:07:13.617Z,69.30
2018-05-02T17:09:41.113Z,69.60
2018-05-02T17:12:08.654Z,69.10
2018-05-02T17:14:36.153Z,70.50
2018-05-02T17:17:04.767Z,70.50
2018-05-02T17:19:32.294Z,70.50
2018-05-02T17:21:59.827Z,70.60
2018-05-02T17:24:28.105Z,70.20
2018-05-02T17:26:56.454Z,70.50
2018-05-02T17:29:24.765Z,69.80
2018-05-02T17:31:52.298Z,69.70
2018-05-02T17:34:19.794Z,70.70
2018-05-02T17:36:47.318Z,71.00
2018-05-02T17:39:15.585Z,71.60
2018-05-02T17:41:43.163Z,71.40
2018-05-02T17:44:10.710Z,71.90
2018-05-02T17:46:38.999Z,72.30
2018-05-02T17:49:06.525Z,72.20
2018-05-02T17:51:34.133Z,72.60
2018-05-02T17:54:01.634Z,72.90
2018-05-02T17:56:29.162Z,73.00
2018-05-02T17:58:56.662Z,72.80
2018-05-02T18:01:24.954Z,73.40
2018-05-02T18:03:52.464Z,73.30
2018-05-02T18:06:19.994Z,73.90
2018-05-02T18:08:47.494Z,74.50
2018-05-02T18:11:15.065Z,74.60
2018-05-02T18:13:43.338Z,74.90
2018-05-02T18:16:11.697Z,75.50
2018-05-02T18:18:39.154Z,75.40
2018-05-02T18:21:07.499Z,76.10
2018-05-02T18:23:35.002Z,75.90
2018-05-02T18:26:02.530Z,75.70
2018-05-02T18:28:30.039Z,75.80
2018-05-02T18:30:57.640Z,76.20
2018-05-02T18:33:25.157Z,76.30
2018-05-02T18:35:52.693Z,76.10
2018-05-02T18:38:20.203Z,75.80
2018-05-02T18:40:47.724Z,75.80
2018-05-02T18:43:15.250Z,76.00
2018-05-02T18:45:43.526Z,76.80
2018-05-02T18:48:11.077Z,76.80
2018-05-02T18:50:39.352Z,77.20
2018-05-02T18:53:07.670Z,77.60
2018-05-02T18:55:35.177Z,77.60
2018-05-02T18:58:04.285Z,78.20
2018-05-02T19:00:31.797Z,78.20
2018-05-02T19:02:59.330Z,78.80
2018-05-02T19:05:26.885Z,79.30
2018-05-02T19:07:54.451Z,81.00
2018-05-02T19:10:21.959Z,82.40
2018-05-02T19:12:50.248Z,84.40
2018-05-02T19:15:17.751Z,84.40
2018-05-02T19:17:51.054Z,85.30
2018-05-02T19:20:24.194Z,85.10
2018-05-02T19:22:51.965Z,84.40
2018-05-02T19:25:25.082Z,84.50
2018-05-02T19:27:52.613Z,84.90
2018-05-02T19:30:20.137Z,85.10
2018-05-02T19:32:53.269Z,85.40
2018-05-02T19:35:20.774Z,85.10
2018-05-02T19:37:48.306Z,85.20
2018-05-02T19:40:21.614Z,85.50
2018-05-02T19:42:55.828Z,85.80
2018-05-02T19:45:23.737Z,85.80
2018-05-02T19:47:51.373Z,86.40
2018-05-02T19:50:19.118Z,87.30
2018-05-02T19:52:50.166Z,89.80
2018-05-02T19:55:17.742Z,89.70
2018-05-02T19:57:45.391Z,89.90
2018-05-02T20:00:18.899Z,90.30
2018-05-02T20:02:52.431Z,90.60
2018-05-02T20:05:20.309Z,91.00
2018-05-02T20:07:48.760Z,91.80
2018-05-02T20:10:22.614Z,91.50
2018-05-02T20:12:56.130Z,91.10
2018-05-02T20:15:23.827Z,91.00
2018-05-02T20:17:52.477Z,91.50
2018-05-02T20:20:20.138Z,91.50
2018-05-02T20:22:48.127Z,91.50
2018-05-02T20:25:16.051Z,91.60
2018-05-02T20:27:43.790Z,91.70
2018-05-02T20:30:13.688Z,92.10
2018-05-02T20:32:41.426Z,92.00
2018-05-02T20:35:09.065Z,92.30
2018-05-02T20:37:36.725Z,92.90
2018-05-02T20:40:04.653Z,93.80
2018-05-02T20:42:32.268Z,94.70
2018-05-02T20:44:59.841Z,94.80
2018-05-02T20:47:27.907Z,94.60
2018-05-02T20:49:55.402Z,95.20
2018-05-02T20:52:22.941Z,95.10
2018-05-02T20:54:51.245Z,95.50
2018-05-02T20:57:19.521Z,95.60
2018-05-02T20:59:47.026Z,95.50
2018-05-02T21:02:14.561Z,95.60
2018-05-02T21:04:42.061Z,96.10
2018-05-02T21:07:11.066Z,95.90
2018-05-02T21:09:38.602Z,95.80
2018-05-02T21:12:06.902Z,96.50
2018-05-02T21:14:34.470Z,96.50
2018-05-02T21:17:02.273Z,96.90
2018-05-02T21:19:29.773Z,97.10
2018-05-02T21:21:57.309Z,97.10
2018-05-02T21:24:25.582Z,96.80
2018-05-02T21:26:55.793Z,96.70
2018-05-02T21:29:23.354Z,96.70
2018-05-02T21:31:51.621Z,96.20
2018-05-02T21:34:19.154Z,96.20
2018-05-02T21:36:46.670Z,96.40
2018-05-02T21:39:14.289Z,95.60
2018-05-02T21:41:41.817Z,95.60
2018-05-02T21:44:09.665Z,95.70
2018-05-02T21:46:37.162Z,95.90
2018-05-02T21:49:04.714Z,96.00
2018-05-02T21:51:32.220Z,96.00
2018-05-02T21:53:59.754Z,96.20
2018-05-02T21:56:28.050Z,96.30
2018-05-02T21:58:55.553Z,96.30
2018-05-02T22:01:23.093Z,96.60
2018-05-02T22:03:50.593Z,96.80
2018-05-02T22:06:18.906Z,97.00
2018-05-02T22:08:46.670Z,97.00
2018-05-02T22:11:14.234Z,97.10
2018-05-02T22:13:41.776Z,97.20
2018-05-02T22:16:09.273Z,97.60
2018-05-02T22:18:37.104Z,97.70
2018-05-02T22:21:04.606Z,97.70
2018-05-02T22:23:32.928Z,97.90
2018-05-02T22:26:00.442Z,97.90
2018-05-02T22:28:28.742Z,98.00
2018-05-02T22:30:56.277Z,98.00
2018-05-02T22:33:24.581Z,98.50
2018-05-02T22:35:52.085Z,98.50
2018-05-02T22:38:19.736Z,98.70
2018-05-02T22:40:47.242Z,98.70
2018-05-02T22:43:14.746Z,99.10
2018-05-02T22:45:42.277Z,99.50
2018-05-02T22:48:09.778Z,99.40
2018-05-02T22:50:37.345Z,99.20
2018-05-02T22:53:05.647Z,99.00
2018-05-02T22:55:33.145Z,99.00
2018-05-02T22:58:00.694Z,99.00
2018-05-02T23:00:28.309Z,99.40
2018-05-02T23:02:55.814Z,99.60
2018-05-02T23:05:24.113Z,99.90
2018-05-02T23:07:52.442Z,99.90
2018-05-02T23:10:19.941Z,99.90
2018-05-02T23:12:48.246Z,99.90
2018-05-02T23:15:15.757Z,99.90
2018-05-02T23:17:44.022Z,99.90
2018-05-02T23:20:11.547Z,99.90
2018-05-02T23:22:39.057Z,99.90
2018-05-02T23:25:07.354Z,99.90
2018-05-02T23:27:34.853Z,99.90
2018-05-02T23:30:02.381Z,99.90
2018-05-02T23:32:29.887Z,99.90
2018-05-02T23:34:57.435Z,99.90
2018-05-02T23:37:26.846Z,99.90
2018-05-02T23:39:54.756Z,99.90
2018-05-02T23:42:22.289Z,99.90
2018-05-02T23:44:50.420Z,99.90
2018-05-02T23:47:17.921Z,99.90
2018-05-02T23:49:45.457Z,99.90
2018-05-02T23:52:13.725Z,99.90
2018-05-02T23:54:42.025Z,99.90
2018-05-02T23:57:09.809Z,99.90
2018-05-02T23:59:37.342Z,99.90
